Dati Storici

Data ora Umidita' aria (%) Temperatura aria (°C) Rad globale (W/m²) Gonioanemometro (°) Tacoanemometro (m/s) Pioggia (mm)
31-10-2012 19:30 90.5 % 9.399 2.398 162.988 3.431 1
31-10-2012 19:20 90.2 % 9.336 2.821 17.079 3.515 1
31-10-2012 19:10 89.6 % 9.384 2.689 76.618 4.536 0
31-10-2012 19:00 89.5 % 9.414 2.459 28.193 6.01 0
31-10-2012 18:50 89.2 % 9.362 2.664 48.009 3.62 0
31-10-2012 18:40 89.5 % 9.293 2.523 15.151 3.334 1
31-10-2012 18:30 89.9 % 9.285 2.702 40.49 3.514 0
31-10-2012 18:20 90.1 % 9.163 2.795 20.045 4.423 1
31-10-2012 18:10 90.4 % 9.19 3.321 8.938 3.15 1
31-10-2012 18:00 90.3 % 9.346 3.68 37.945 4.447 1
31-10-2012 17:50 90.6 % 9.646 4.743 5.723 3.806 0
31-10-2012 17:40 90.7 % 9.793 5.882 295.985 2.372 0
31-10-2012 17:30 90.7 % 9.834 8.083 26.218 7.132 1
31-10-2012 17:20 89.9 % 9.963 14.585 15.02 4.931 0
31-10-2012 17:10 89.7 % 10.095 21.572 21.91 5.929 0
31-10-2012 17:00 89.6 % 9.964 34.765 40.324 3.998 0
31-10-2012 16:50 88.5 % 10.057 25.57 4.26 3.056 0
31-10-2012 16:40 87.6 % 10.195 18.851 42.578 3.439 0
31-10-2012 16:30 86.6 % 10.311 14.878 43.042 3.333 0
31-10-2012 16:20 85.5 % 10.502 17.213 66.62 3.446 0

I dati sono presentati in modo automatico a scopo informativo. In seguito a verifica i dati possono subire modifiche o essere invalidati e non riportati negli archivi definitivi.